Time;durP1;ratioP1;P1;durP2;ratioP2;P2;SDS_P1;SDS_P2;PMS_P1;PMS_P2;Temp;Humidity;BMP_temperature;BMP_pressure;BME280_temperature;BME280_humidity;BME280_pressure;Samples;Min_cycle;Max_cycle;Signal;HPM_P1;HPM_P2
2022/07/14 00:00:51;;;;;;;3.67;1.23;;;;;;;24.37;49.52;102048.63;5133722;28;20027;-64
2022/07/14 00:03:16;;;;;;;4.28;1.48;;;;;;;24.37;49.40;102040.63;5132926;28;20029;-64
2022/07/14 00:05:41;;;;;;;5.23;1.50;;;;;;;24.36;49.79;102052.25;5133536;28;20019;-64
2022/07/14 00:08:06;;;;;;;6.05;1.50;;;;;;;24.35;49.75;102055.88;5133255;28;20598;-64
2022/07/14 00:10:32;;;;;;;4.32;1.40;;;;;;;24.34;49.43;102061.34;5132745;28;20138;-64
2022/07/14 00:12:57;;;;;;;4.63;1.50;;;;;;;24.33;49.42;102065.00;5132990;28;20111;-64
2022/07/14 00:15:25;;;;;;;5.75;1.20;;;;;;;24.33;49.44;102046.38;5133619;28;20028;-64
2022/07/14 00:17:50;;;;;;;5.65;1.60;;;;;;;24.31;49.43;102034.97;5132534;28;20106;-64
2022/07/14 00:20:16;;;;;;;6.60;1.60;;;;;;;24.30;49.51;102025.31;5133431;28;20050;-64
2022/07/14 00:22:41;;;;;;;5.30;1.50;;;;;;;24.31;49.88;102014.53;5132520;28;20101;-64
2022/07/14 00:25:10;;;;;;;4.83;1.43;;;;;;;24.31;49.68;102013.66;5133243;28;20027;-64
2022/07/14 00:27:38;;;;;;;4.85;1.30;;;;;;;24.31;49.54;102011.00;5133532;28;20034;-64
2022/07/14 00:30:05;;;;;;;5.70;1.50;;;;;;;24.29;49.50;102012.97;5132336;28;20075;-64
2022/07/14 00:32:30;;;;;;;5.50;1.52;;;;;;;24.28;49.44;102028.13;5133325;28;20047;-64
2022/07/14 00:34:58;;;;;;;3.50;1.27;;;;;;;24.27;49.34;102039.75;5133027;28;20074;-64
2022/07/14 00:37:23;;;;;;;4.28;1.30;;;;;;;24.27;49.75;102040.59;5132526;28;20060;-63
2022/07/14 00:39:54;;;;;;;5.00;1.97;;;;;;;24.25;49.31;102039.88;5135466;27;20031;-64
2022/07/14 00:42:30;;;;;;;4.45;1.30;;;;;;;24.25;49.37;102031.88;5136960;27;20856;-64
2022/07/14 00:45:00;;;;;;;5.75;1.40;;;;;;;24.23;49.40;102031.19;5135862;27;20031;-64
2022/07/14 00:47:28;;;;;;;5.60;1.60;;;;;;;24.24;49.17;102029.38;5136956;27;20044;-64
2022/07/14 00:49:57;;;;;;;5.00;1.70;;;;;;;24.24;49.27;102040.88;5136599;27;20050;-64
2022/07/14 00:52:24;;;;;;;4.60;1.40;;;;;;;24.24;49.22;102030.22;5136031;27;20462;-64
2022/07/14 00:54:50;;;;;;;4.70;1.58;;;;;;;24.24;49.44;102032.88;5136745;27;20030;-64
2022/07/14 00:57:16;;;;;;;4.28;1.35;;;;;;;24.25;49.28;102036.38;5136933;27;20015;-64
2022/07/14 00:59:41;;;;;;;3.22;1.15;;;;;;;24.23;49.09;102041.00;5135956;27;20023;-64
2022/07/14 01:02:06;;;;;;;5.68;1.50;;;;;;;24.22;49.46;102034.81;5136469;27;20084;-64
2022/07/14 01:04:31;;;;;;;4.03;1.30;;;;;;;24.21;49.31;102033.16;5136575;27;20053;-64
2022/07/14 01:06:57;;;;;;;5.53;1.73;;;;;;;24.22;49.49;102039.31;5135827;27;20271;-63
2022/07/14 01:09:22;;;;;;;6.07;1.50;;;;;;;24.21;49.18;102050.94;5136608;27;20020;-64
2022/07/14 01:11:47;;;;;;;4.97;1.23;;;;;;;24.22;49.46;102056.13;5135483;27;20051;-64
2022/07/14 01:14:13;;;;;;;4.63;1.35;;;;;;;24.22;49.57;102049.97;5136081;27;20290;-64
2022/07/14 01:16:38;;;;;;;4.60;1.10;;;;;;;24.19;49.18;102063.56;5136402;27;20019;-64
2022/07/14 01:19:03;;;;;;;4.53;1.25;;;;;;;24.19;49.52;102051.06;5135378;27;20019;-64
2022/07/14 01:21:34;;;;;;;4.65;1.40;;;;;;;24.18;49.17;102059.19;5136503;27;20110;-64
2022/07/14 01:23:59;;;;;;;4.88;1.40;;;;;;;24.17;49.33;102066.34;5136011;27;20066;-64
2022/07/14 01:26:27;;;;;;;4.50;1.50;;;;;;;24.16;49.45;102062.00;5135538;27;20058;-64
2022/07/14 01:28:53;;;;;;;4.80;1.45;;;;;;;24.16;49.14;102050.50;5134882;27;20049;-64
2022/07/14 01:31:18;;;;;;;6.17;1.97;;;;;;;24.18;49.38;102053.88;5136093;27;20482;-64
2022/07/14 01:33:43;;;;;;;5.28;1.38;;;;;;;24.17;49.36;102058.38;5135208;27;20355;-64
2022/07/14 01:36:08;;;;;;;4.47;1.58;;;;;;;24.17;49.07;102066.34;5135611;27;20046;-64
2022/07/14 01:38:34;;;;;;;4.28;1.50;;;;;;;24.16;49.47;102058.50;5136125;27;20027;-64
2022/07/14 01:40:59;;;;;;;5.33;1.30;;;;;;;24.16;49.26;102055.84;5134672;27;20068;-64
2022/07/14 01:43:24;;;;;;;4.75;1.30;;;;;;;24.16;49.18;102056.66;5135772;27;20275;-64
2022/07/14 01:45:50;;;;;;;4.45;1.50;;;;;;;24.14;49.02;102052.47;5135476;27;20019;-64
2022/07/14 01:48:15;;;;;;;5.18;1.48;;;;;;;24.14;49.03;102053.31;5134998;27;20019;-64
2022/07/14 01:50:41;;;;;;;4.03;1.52;;;;;;;24.09;49.20;102045.72;5135281;27;20023;-64
2022/07/14 01:53:06;;;;;;;4.97;1.52;;;;;;;24.12;49.40;102051.78;5135373;27;20078;-64
2022/07/14 01:55:31;;;;;;;4.40;1.48;;;;;;;24.12;49.10;102051.78;5134814;27;20072;-64
2022/07/14 01:57:57;;;;;;;4.68;1.35;;;;;;;24.11;49.25;102047.41;5135321;27;20030;-64
2022/07/14 02:00:22;;;;;;;4.87;1.60;;;;;;;24.11;49.24;102037.59;5135574;27;20128;-64
2022/07/14 02:02:50;;;;;;;4.70;1.30;;;;;;;24.12;49.29;102041.13;5134688;27;20255;-64
2022/07/14 02:05:16;;;;;;;5.60;1.33;;;;;;;24.12;48.83;102039.31;5135320;27;20423;-64
2022/07/14 02:07:41;;;;;;;6.88;1.65;;;;;;;24.12;49.27;102036.63;5135611;27;20019;-64
2022/07/14 02:12:52;;;;;;;4.75;1.27;;;;;;;24.11;49.36;102050.09;5135377;27;20131;-64
2022/07/14 02:15:17;;;;;;;6.63;1.60;;;;;;;24.11;49.27;102053.56;5134454;27;20055;-64
2022/07/14 02:17:42;;;;;;;3.83;1.30;;;;;;;24.09;49.23;102045.72;5134629;27;20038;-64
2022/07/14 02:20:08;;;;;;;4.23;1.30;;;;;;;24.09;49.17;102039.56;5134955;27;20049;-64
2022/07/14 02:22:34;;;;;;;6.15;1.98;;;;;;;24.08;49.17;102044.06;5134439;27;20264;-64
2022/07/14 02:24:59;;;;;;;4.25;1.45;;;;;;;24.09;48.75;102044.91;5134937;27;20076;-64
2022/07/14 02:27:24;;;;;;;3.65;1.33;;;;;;;24.09;48.82;102048.38;5134898;27;20390;-64
2022/07/14 02:29:50;;;;;;;5.03;1.57;;;;;;;24.08;48.88;102045.84;5133812;27;20035;-64
2022/07/14 02:32:15;;;;;;;4.40;1.50;;;;;;;24.07;48.63;102046.84;5132887;27;20312;-64
2022/07/14 02:34:40;;;;;;;5.40;1.60;;;;;;;24.05;48.75;102039.00;5134991;27;20267;-64
2022/07/14 02:37:14;;;;;;;4.03;1.33;;;;;;;24.06;48.92;102039.84;5133686;27;20633;-64
2022/07/14 02:39:40;;;;;;;5.53;1.58;;;;;;;24.06;48.88;102026.53;5134264;27;20120;-64
2022/07/14 02:42:05;;;;;;;4.10;1.40;;;;;;;24.05;48.99;102031.00;5134363;27;20117;-64
2022/07/14 02:44:30;;;;;;;3.63;1.10;;;;;;;24.04;49.11;102024.00;5133746;27;20294;-64
2022/07/14 02:46:55;;;;;;;4.37;1.50;;;;;;;24.03;48.61;102022.31;5134508;27;20518;-64
2022/07/14 02:49:21;;;;;;;4.40;1.40;;;;;;;24.04;49.02;102015.19;5134677;27;20267;-64
2022/07/14 02:51:46;;;;;;;5.38;1.48;;;;;;;24.03;48.90;102013.47;5133867;27;20264;-64
2022/07/14 02:54:11;;;;;;;5.10;1.45;;;;;;;24.01;48.96;102008.28;5134402;27;20023;-64
2022/07/14 02:56:37;;;;;;;4.50;1.35;;;;;;;24.01;48.58;102007.47;5134553;27;20105;-64
2022/07/14 02:59:06;;;;;;;5.65;1.40;;;;;;;23.99;48.91;102010.25;5133353;27;20015;-64
2022/07/14 03:01:31;;;;;;;5.18;1.52;;;;;;;23.99;48.71;102020.91;5134353;27;20022;-64
2022/07/14 03:03:57;;;;;;;3.90;1.23;;;;;;;23.99;48.94;102015.56;5133874;27;20031;-64
2022/07/14 03:06:22;;;;;;;5.43;1.95;;;;;;;23.97;48.94;102012.19;5133638;27;20031;-64
2022/07/14 03:08:48;;;;;;;5.78;1.30;;;;;;;23.98;48.58;102013.06;5134415;27;20043;-64
2022/07/14 03:11:13;;;;;;;4.18;1.17;;;;;;;23.97;48.48;102006.03;5133788;27;20134;-64
2022/07/14 03:13:39;;;;;;;4.80;1.42;;;;;;;23.97;48.58;102008.69;5133404;27;20021;-64
2022/07/14 03:16:09;;;;;;;7.07;1.77;;;;;;;23.96;48.71;102005.19;5133966;27;20029;-64
2022/07/14 03:18:35;;;;;;;5.88;1.73;;;;;;;23.96;48.53;101999.00;5133283;27;20069;-64
2022/07/14 03:21:00;;;;;;;5.13;1.50;;;;;;;23.95;48.55;101998.19;5133798;27;20051;-64
2022/07/14 03:23:25;;;;;;;6.20;1.40;;;;;;;23.94;48.44;101990.31;5134134;27;20111;-64
2022/07/14 03:25:51;;;;;;;3.55;1.55;;;;;;;23.94;48.46;101993.84;5132945;27;20275;-64
2022/07/14 03:28:16;;;;;;;4.53;1.63;;;;;;;23.89;48.24;101982.75;5134049;27;20047;-64
2022/07/14 03:30:42;;;;;;;5.55;1.65;;;;;;;23.94;48.67;101992.97;5134156;27;20470;-64
2022/07/14 03:33:10;;;;;;;5.40;1.50;;;;;;;23.92;48.30;101986.97;5132930;27;20023;-64
2022/07/14 03:35:37;;;;;;;4.00;1.30;;;;;;;23.91;48.79;101986.13;5133852;27;20019;-64
2022/07/14 03:38:03;;;;;;;5.13;1.55;;;;;;;23.92;48.35;101986.97;5133574;27;20129;-64
2022/07/14 03:40:28;;;;;;;4.53;1.33;;;;;;;23.89;48.36;101991.59;5133144;27;20114;-64
2022/07/14 03:42:53;;;;;;;5.90;1.73;;;;;;;23.89;48.40;101986.28;5133413;27;20075;-65
2022/07/14 03:45:18;;;;;;;4.67;1.40;;;;;;;23.89;48.49;101988.94;5133590;27;20109;-65
2022/07/14 03:47:44;;;;;;;5.00;1.27;;;;;;;23.88;48.20;101983.75;5133045;27;20277;-65
2022/07/14 03:50:10;;;;;;;6.10;1.60;;;;;;;23.88;48.41;101994.38;5133849;27;20752;-65
2022/07/14 03:52:35;;;;;;;4.95;1.60;;;;;;;23.87;48.17;101995.34;5133615;28;20264;-64
2022/07/14 03:55:01;;;;;;;5.10;1.40;;;;;;;23.85;48.12;102008.78;5132586;28;20019;-65
2022/07/14 03:57:26;;;;;;;6.05;1.60;;;;;;;23.85;48.51;102006.13;5133541;28;20019;-65
2022/07/14 03:59:52;;;;;;;5.18;1.70;;;;;;;23.84;48.39;102014.25;5133477;28;20462;-64
2022/07/14 04:02:17;;;;;;;3.70;1.50;;;;;;;23.85;48.20;102027.44;5132935;28;20035;-65
2022/07/14 04:04:42;;;;;;;3.90;1.60;;;;;;;23.85;48.33;102018.63;5133465;28;20023;-65
2022/07/14 04:07:08;;;;;;;4.88;1.58;;;;;;;23.84;48.48;102017.75;5133189;28;20015;-65
2022/07/14 04:09:33;;;;;;;5.97;1.60;;;;;;;23.84;48.38;102028.41;5132601;28;20053;-65
2022/07/14 04:11:59;;;;;;;5.40;1.58;;;;;;;23.84;48.27;102019.56;5132837;28;20036;-65
2022/07/14 04:14:24;;;;;;;5.32;1.80;;;;;;;23.84;48.20;102025.72;5135135;27;20489;-64
2022/07/14 04:16:51;;;;;;;7.63;1.77;;;;;;;23.82;48.15;102013.53;5136543;27;20053;-65
2022/07/14 04:19:17;;;;;;;5.93;1.70;;;;;;;23.83;47.89;102024.06;5137592;27;20023;-64
2022/07/14 04:21:42;;;;;;;4.45;1.42;;;;;;;23.82;48.34;102011.69;5136656;27;20019;-64
2022/07/14 04:24:07;;;;;;;4.90;1.30;;;;;;;23.83;47.97;102020.50;5137025;27;20019;-64
2022/07/14 04:26:33;;;;;;;4.47;1.50;;;;;;;23.81;48.32;102012.66;5137254;27;20037;-64
2022/07/14 04:28:58;;;;;;;4.22;1.40;;;;;;;23.81;48.05;102010.00;5136154;27;20160;-65
2022/07/14 04:31:24;;;;;;;4.43;1.40;;;;;;;23.82;48.16;102010.88;5137470;27;20038;-64
2022/07/14 04:33:52;;;;;;;5.32;1.80;;;;;;;23.79;48.24;102005.81;5137043;27;20618;-65
2022/07/14 04:36:18;;;;;;;4.68;1.50;;;;;;;23.80;47.97;102016.31;5136319;27;20023;-64
2022/07/14 04:38:43;;;;;;;5.35;1.80;;;;;;;23.80;47.95;102015.44;5137110;27;20072;-64
2022/07/14 04:41:08;;;;;;;6.05;1.63;;;;;;;23.79;48.14;102017.28;5136750;27;20530;-65
2022/07/14 04:43:34;;;;;;;4.70;1.40;;;;;;;23.79;47.97;102011.13;5136394;27;20023;-65
2022/07/14 04:45:59;;;;;;;5.00;1.42;;;;;;;23.78;48.00;101999.63;5136783;27;20271;-65
2022/07/14 04:48:24;;;;;;;5.13;1.60;;;;;;;23.79;48.29;101989.84;5136947;27;20023;-64
2022/07/14 04:53:38;;;;;;;4.50;1.75;;;;;;;23.79;47.97;101985.34;5137062;27;20041;-65
2022/07/14 04:56:03;;;;;;;6.45;1.90;;;;;;;23.81;48.38;101990.53;5136340;27;20508;-65
2022/07/14 04:58:30;;;;;;;6.25;1.65;;;;;;;23.80;47.96;101997.69;5135986;27;20031;-65
2022/07/14 05:00:58;;;;;;;4.60;1.48;;;;;;;23.80;47.95;102004.81;5136189;27;20379;-65
2022/07/14 05:03:24;;;;;;;5.65;1.60;;;;;;;23.79;48.38;101998.66;5136514;27;20019;-65
2022/07/14 05:05:49;;;;;;;6.65;1.70;;;;;;;23.80;48.28;102010.13;5135575;27;20046;-64
2022/07/14 05:08:14;;;;;;;6.72;1.80;;;;;;;23.80;47.89;102021.63;5136329;27;20071;-64
2022/07/14 05:10:39;;;;;;;7.03;2.03;;;;;;;23.78;46.48;102028.91;5136381;27;20130;-64
2022/07/14 05:13:05;;;;;;;9.30;2.80;;;;;;;23.51;45.54;102022.34;5135325;27;20263;-64
2022/07/14 05:15:30;;;;;;;12.63;3.40;;;;;;;23.17;45.85;102037.69;5136462;27;20027;-65
2022/07/14 05:17:56;;;;;;;10.18;2.92;;;;;;;22.76;46.61;102034.78;5135398;27;20023;-65
2022/07/14 05:20:22;;;;;;;9.30;3.63;;;;;;;22.41;47.95;102033.25;5136112;27;20027;-64
2022/07/14 05:22:47;;;;;;;9.48;2.95;;;;;;;22.10;48.38;102018.91;5135967;27;20023;-66
2022/07/14 05:25:13;;;;;;;9.40;2.72;;;;;;;21.87;49.77;102010.97;5134131;27;20034;-63
2022/07/14 05:27:39;;;;;;;8.20;2.67;;;;;;;21.96;51.05;102013.84;5135946;27;20046;-64
2022/07/14 05:30:09;;;;;;;9.23;2.00;;;;;;;22.12;51.18;102010.81;5135846;27;20474;-64
2022/07/14 05:32:35;;;;;;;6.78;1.73;;;;;;;22.31;50.84;102013.69;5135147;27;20492;-67
2022/07/14 05:35:02;;;;;;;14.10;2.80;;;;;;;22.41;48.89;102014.66;5135489;27;20027;-62
2022/07/14 05:37:27;;;;;;;12.05;2.85;;;;;;;22.48;49.46;102019.44;5135897;27;20026;-65
2022/07/14 05:39:52;;;;;;;12.38;2.78;;;;;;;22.60;49.76;102007.81;5134887;27;20019;-66
2022/07/14 05:42:22;;;;;;;7.13;2.08;;;;;;;22.73;49.80;102007.63;5135912;27;20015;-65
2022/07/14 05:44:48;;;;;;;8.57;2.65;;;;;;;22.74;48.47;102009.34;5135176;27;20035;-64
2022/07/14 05:47:14;;;;;;;8.57;2.00;;;;;;;22.81;49.09;102014.03;5134767;27;20470;-65
2022/07/14 05:49:40;;;;;;;9.00;2.05;;;;;;;22.95;49.58;102020.00;5135542;27;20022;-66
2022/07/14 05:52:05;;;;;;;8.55;2.78;;;;;;;23.01;47.70;102024.78;5135489;27;20106;-67
2022/07/14 05:54:31;;;;;;;10.13;3.45;;;;;;;22.72;47.02;102017.44;5135025;27;20576;-65
2022/07/14 05:56:56;;;;;;;13.18;3.00;;;;;;;22.30;47.81;102022.63;5135425;27;20022;-63
2022/07/14 05:59:21;;;;;;;10.13;3.33;;;;;;;21.87;48.88;102023.38;5135621;27;20023;-63
2022/07/14 06:01:47;;;;;;;9.37;3.27;;;;;;;21.51;49.71;102014.69;5134734;27;20023;-63
2022/07/14 06:04:12;;;;;;;8.95;2.90;;;;;;;21.19;50.94;102012.66;5135123;27;20333;-63
2022/07/14 06:06:37;;;;;;;12.18;3.28;;;;;;;20.94;51.65;102011.84;5135338;27;20087;-63
2022/07/14 06:09:04;;;;;;;12.02;3.30;;;;;;;20.76;52.41;102016.72;5134191;27;20377;-63
2022/07/14 06:11:29;;;;;;;10.43;3.28;;;;;;;20.61;53.03;102010.72;5135154;27;20134;-65
2022/07/14 06:13:54;;;;;;;9.52;2.90;;;;;;;20.52;52.77;102013.19;5134613;27;20521;-66
2022/07/14 06:16:20;;;;;;;14.25;3.03;;;;;;;20.46;53.53;102022.44;5134461;27;20023;-64
2022/07/14 06:18:45;;;;;;;10.68;3.00;;;;;;;20.38;53.56;102027.47;5135107;27;20034;-65
2022/07/14 06:21:10;;;;;;;10.87;2.33;;;;;;;20.44;53.25;102013.75;5134792;27;20059;-64
2022/07/14 06:23:42;;;;;;;9.65;2.67;;;;;;;20.54;53.24;102016.59;5134361;27;20673;-65
2022/07/14 06:26:11;;;;;;;8.60;2.30;;;;;;;20.63;52.80;102010.59;5134633;27;20462;-65
2022/07/14 06:28:36;;;;;;;7.75;2.00;;;;;;;20.70;52.68;102011.03;5134389;27;20149;-65
2022/07/14 06:31:02;;;;;;;9.18;2.28;;;;;;;20.74;52.59;102009.84;5134720;27;20392;-65
2022/07/14 06:33:27;;;;;;;9.25;2.22;;;;;;;20.76;52.17;102010.56;5134913;27;20023;-65
2022/07/14 06:35:53;;;;;;;9.57;2.77;;;;;;;20.78;52.12;102020.09;5133842;27;20027;-65
2022/07/14 06:38:18;;;;;;;8.90;2.30;;;;;;;20.81;52.04;102022.53;5134571;27;20614;-64
2022/07/14 06:40:43;;;;;;;11.40;2.43;;;;;;;20.82;52.11;102020.72;5134639;27;20263;-64
2022/07/14 06:43:08;;;;;;;9.60;2.28;;;;;;;20.76;51.87;102018.50;5133759;27;20290;-64
2022/07/14 06:45:34;;;;;;;11.63;2.55;;;;;;;20.70;52.52;102016.34;5134638;27;20393;-64
2022/07/14 06:47:59;;;;;;;8.80;2.75;;;;;;;20.63;52.39;102026.50;5134325;27;20042;-63
2022/07/14 06:50:25;;;;;;;11.82;2.83;;;;;;;20.61;52.41;102028.41;5133888;27;20083;-63
2022/07/14 06:52:53;;;;;;;12.95;2.78;;;;;;;20.61;52.61;102023.94;5134456;27;20030;-64
2022/07/14 06:55:18;;;;;;;9.07;2.78;;;;;;;20.78;52.75;102032.50;5134602;27;20094;-64
2022/07/14 06:57:44;;;;;;;9.02;2.10;;;;;;;20.99;52.48;102022.94;5133529;27;20455;-64
2022/07/14 07:00:10;;;;;;;7.03;1.98;;;;;;;21.22;52.31;102019.53;5134131;27;20057;-64
2022/07/14 07:02:36;;;;;;;6.85;1.77;;;;;;;21.38;52.03;102020.06;5134195;27;20023;-65
2022/07/14 07:07:49;;;;;;;9.73;3.05;;;;;;;21.51;50.33;102007.56;5134101;27;20060;-65
2022/07/14 07:10:14;;;;;;;9.90;3.38;;;;;;;21.53;50.10;102015.41;5133974;27;20031;-65
2022/07/14 07:12:40;;;;;;;11.07;3.90;;;;;;;21.41;50.21;102017.13;5133246;27;20027;-65
2022/07/14 07:15:06;;;;;;;9.18;3.20;;;;;;;21.28;50.80;102016.41;5133862;27;20023;-63
2022/07/14 07:17:32;;;;;;;11.48;3.53;;;;;;;21.18;50.64;102019.75;5133456;27;20043;-67
2022/07/14 07:19:57;;;;;;;9.55;3.28;;;;;;;21.11;50.82;102028.28;5133896;27;20541;-67
2022/07/14 07:22:23;;;;;;;11.00;3.88;;;;;;;21.06;50.94;102019.84;5134242;27;20029;-66
2022/07/14 07:24:48;;;;;;;11.83;4.17;;;;;;;21.01;50.29;102010.44;5133097;27;20038;-66
2022/07/14 07:27:16;;;;;;;12.23;3.87;;;;;;;20.97;50.31;102021.38;5133651;27;20321;-65
2022/07/14 07:29:41;;;;;;;10.57;3.35;;;;;;;20.96;50.60;102011.75;5133823;27;20275;-67
2022/07/14 07:32:07;;;;;;;7.37;3.17;;;;;;;20.93;50.68;102012.81;5132749;27;20072;-65
2022/07/14 07:34:36;;;;;;;11.15;3.22;;;;;;;20.93;50.56;102011.97;5133971;27;20279;-65
2022/07/14 07:37:02;;;;;;;9.23;3.10;;;;;;;20.94;50.74;102011.03;5133545;27;20027;-64
2022/07/14 07:39:27;;;;;;;10.10;3.47;;;;;;;20.95;50.88;102002.09;5132971;27;20031;-64
2022/07/14 07:42:05;;;;;;;9.67;3.03;;;;;;;20.95;50.61;102005.59;5133603;27;20026;-63
2022/07/14 07:44:30;;;;;;;7.95;3.15;;;;;;;20.97;50.45;101994.88;5133545;27;20335;-64
2022/07/14 07:46:56;;;;;;;10.30;2.78;;;;;;;20.96;50.50;101986.06;5132836;27;20023;-64
2022/07/14 07:49:22;;;;;;;8.23;2.90;;;;;;;21.00;50.84;101989.38;5133073;27;20019;-62
2022/07/14 07:51:47;;;;;;;11.18;3.55;;;;;;;21.04;50.84;101980.19;5133616;28;20426;-62
2022/07/14 07:54:19;;;;;;;9.38;3.30;;;;;;;21.04;50.62;101988.16;5132922;28;20106;-64
2022/07/14 07:56:45;;;;;;;11.00;3.40;;;;;;;21.09;50.74;101987.81;5133505;28;20051;-63
2022/07/14 07:59:12;;;;;;;10.23;3.15;;;;;;;21.23;50.91;101987.59;5133388;28;20051;-62
2022/07/14 08:01:37;;;;;;;7.88;3.17;;;;;;;21.42;50.88;101980.88;5132980;28;20031;-63
2022/07/14 08:04:02;;;;;;;7.03;2.65;;;;;;;21.53;50.57;101978.25;5133274;28;20462;-63
2022/07/14 08:06:28;;;;;;;7.13;2.30;;;;;;;21.59;51.00;101964.53;5133626;28;20386;-63
2022/07/14 08:08:53;;;;;;;6.63;2.40;;;;;;;21.68;50.96;101963.81;5132395;28;20023;-63
2022/07/14 08:11:18;;;;;;;7.57;2.30;;;;;;;21.81;50.55;101970.78;5133298;28;20159;-63
2022/07/14 08:13:43;;;;;;;7.07;2.30;;;;;;;21.94;50.70;101966.19;5133195;28;20298;-63
2022/07/14 08:16:09;;;;;;;5.85;2.33;;;;;;;22.06;50.28;101959.91;5132710;28;20365;-63
2022/07/14 08:18:34;;;;;;;5.75;2.17;;;;;;;22.19;49.70;101964.19;5133594;28;20439;-63
2022/07/14 08:20:59;;;;;;;7.80;2.37;;;;;;;22.28;49.60;101963.47;5132478;28;20526;-63
2022/07/14 08:23:26;;;;;;;7.57;2.80;;;;;;;22.37;49.42;101954.78;5133564;28;20334;-63
2022/07/14 08:25:51;;;;;;;7.60;2.50;;;;;;;22.44;49.24;101952.44;5132849;28;20295;-63
2022/07/14 08:28:18;;;;;;;7.05;2.30;;;;;;;22.53;49.21;101961.50;5132434;28;20057;-63
2022/07/14 08:30:44;;;;;;;5.35;2.08;;;;;;;22.59;49.08;101961.81;5133430;28;20047;-63
2022/07/14 08:33:12;;;;;;;6.32;2.47;;;;;;;22.64;48.96;101956.13;5133077;28;20114;-63
2022/07/14 08:35:37;;;;;;;6.40;2.20;;;;;;;22.70;48.71;101960.94;5132726;28;20438;-63
2022/07/14 08:38:03;;;;;;;7.13;2.47;;;;;;;22.74;48.56;101951.72;5132352;28;20069;-63
2022/07/14 08:40:28;;;;;;;5.88;2.10;;;;;;;22.79;48.79;101948.66;5133349;28;20267;-64
2022/07/14 08:42:56;;;;;;;6.45;2.17;;;;;;;22.85;48.38;101955.31;5132285;28;20070;-64
2022/07/14 08:45:27;;;;;;;6.57;2.10;;;;;;;22.88;48.04;101952.38;5133394;28;20038;-64
2022/07/14 08:47:53;;;;;;;5.43;1.98;;;;;;;22.90;48.57;101958.41;5132911;28;20493;-64
2022/07/14 08:50:21;;;;;;;5.05;2.05;;;;;;;22.95;48.27;101961.50;5132774;28;20076;-64
2022/07/14 08:52:48;;;;;;;5.53;1.92;;;;;;;22.98;48.04;101967.41;5133346;28;20023;-64
2022/07/14 08:55:16;;;;;;;4.88;1.90;;;;;;;22.99;48.25;101955.81;5132759;28;20067;-64
2022/07/14 08:57:41;;;;;;;5.30;2.13;;;;;;;23.01;48.20;101950.34;5132510;28;20119;-64
2022/07/14 09:00:13;;;;;;;6.95;2.15;;;;;;;23.06;47.81;101952.63;5133793;27;20065;-63
2022/07/14 09:02:40;;;;;;;4.60;2.03;;;;;;;23.09;47.85;101949.75;5136861;27;20023;-63
2022/07/14 09:05:13;;;;;;;6.72;2.05;;;;;;;23.10;48.05;101949.63;5135628;27;20037;-64
2022/07/14 09:07:39;;;;;;;5.78;2.08;;;;;;;23.13;47.70;101948.50;5136565;27;20544;-64
2022/07/14 09:10:13;;;;;;;8.68;2.30;;;;;;;23.14;47.85;101951.03;5135737;27;20057;-64
2022/07/14 09:12:41;;;;;;;4.95;1.70;;;;;;;23.16;47.68;101954.41;5136779;27;20137;-63
2022/07/14 09:18:12;;;;;;;5.10;1.60;;;;;;;23.19;48.06;101947.97;5135430;27;20030;-64
2022/07/14 09:20:41;;;;;;;4.95;2.08;;;;;;;23.21;47.81;101943.38;5135872;27;20035;-63
2022/07/14 09:23:07;;;;;;;5.90;1.95;;;;;;;23.24;47.53;101937.81;5135992;27;20481;-64
2022/07/14 09:25:37;;;;;;;5.13;1.95;;;;;;;23.26;47.62;101941.16;5135788;27;20026;-63
2022/07/14 09:28:03;;;;;;;5.47;1.85;;;;;;;23.27;47.60;101944.66;5136058;27;20020;-63
2022/07/14 09:30:29;;;;;;;5.05;2.20;;;;;;;23.29;47.95;101942.69;5136756;27;20099;-63
2022/07/14 09:32:56;;;;;;;7.28;1.92;;;;;;;23.30;47.84;101934.59;5135016;27;20049;-63
2022/07/14 09:35:34;;;;;;;4.90;1.90;;;;;;;23.32;47.81;101935.31;5136231;27;20015;-63
2022/07/14 09:38:01;;;;;;;4.72;1.80;;;;;;;23.33;47.52;101942.28;5134550;27;20038;-63
2022/07/14 09:40:28;;;;;;;5.50;1.70;;;;;;;23.34;47.71;101936.00;5135300;27;20110;-63
2022/07/14 09:43:12;;;;;;;6.03;1.90;;;;;;;23.35;47.64;101940.38;5135743;27;20030;-64
2022/07/14 09:45:44;;;;;;;4.15;1.67;;;;;;;23.38;47.82;101939.25;5135345;27;20042;-64
2022/07/14 09:48:12;;;;;;;4.07;1.70;;;;;;;23.39;47.68;101929.47;5135643;27;20844;-63
2022/07/14 09:50:57;;;;;;;5.32;1.80;;;;;;;23.41;47.95;101938.97;5135829;27;20377;-63
2022/07/14 09:53:29;;;;;;;4.10;1.73;;;;;;;23.42;47.98;101940.66;5135062;27;20023;-63
2022/07/14 09:56:02;;;;;;;4.35;1.75;;;;;;;23.44;47.69;101941.38;5135713;27;20099;-64
2022/07/14 09:58:35;;;;;;;3.72;1.60;;;;;;;23.45;47.70;101943.06;5135891;27;20033;-64
2022/07/14 10:01:03;;;;;;;4.45;1.80;;;;;;;23.45;47.78;101942.22;5134659;27;20019;-63
2022/07/14 10:03:30;;;;;;;7.57;1.83;;;;;;;23.45;47.72;101943.06;5135375;27;20555;-64
2022/07/14 10:05:57;;;;;;;5.45;1.92;;;;;;;23.47;47.59;101953.56;5135154;27;20489;-63
2022/07/14 10:08:24;;;;;;;5.30;2.00;;;;;;;23.46;47.67;101933.25;5134617;27;20033;-63
2022/07/14 10:10:54;;;;;;;4.53;1.88;;;;;;;23.48;47.85;101932.16;5134833;27;20047;-62
2022/07/14 10:13:24;;;;;;;4.47;1.70;;;;;;;23.48;47.64;101928.63;5134166;27;20076;-67
2022/07/14 10:15:51;;;;;;;5.25;1.75;;;;;;;23.48;47.37;101939.28;5134997;27;20029;-64
2022/07/14 10:18:18;;;;;;;3.75;1.65;;;;;;;23.46;47.86;101942.06;5135280;27;20023;-66
2022/07/14 10:20:50;;;;;;;4.50;1.70;;;;;;;23.46;47.51;101942.06;5134398;27;20105;-65
2022/07/14 10:23:16;;;;;;;6.78;1.70;;;;;;;23.46;46.10;101952.72;5135391;27;20027;-65
2022/07/14 10:25:41;;;;;;;5.47;2.20;;;;;;;23.44;47.16;101944.03;5135193;27;20052;-66
2022/07/14 10:28:10;;;;;;;6.38;3.50;;;;;;;23.47;47.26;101938.44;5133884;27;20027;-65
2022/07/14 10:31:13;;;;;;;8.10;4.72;;;;;;;23.50;47.88;101950.66;5135048;27;20478;-65
2022/07/14 10:33:53;;;;;;;10.82;5.30;;;;;;;23.53;47.64;101942.41;5135199;27;20084;-65
2022/07/14 10:36:40;;;;;;;10.40;5.88;;;;;;;23.53;47.86;101945.06;5134280;27;20022;-65
2022/07/14 10:39:12;;;;;;;11.00;7.75;;;;;;;23.53;47.76;101953.88;5134696;27;20023;-65
2022/07/14 10:42:29;;;;;;;14.10;10.27;;;;;;;23.56;48.44;101950.13;5133076;27;20440;-66
2022/07/14 10:44:55;;;;;;;19.38;12.95;;;;;;;23.58;48.19;101952.66;5051083;28;20110;-65
2022/07/14 10:47:23;;;;;;;15.02;13.02;;;;;;;23.59;48.48;101949.00;5051414;28;20084;-65
2022/07/14 10:50:08;;;;;;;14.95;13.23;;;;;;;23.61;48.40;101949.72;5090442;27;20043;-66
2022/07/14 10:52:36;;;;;;;15.52;12.30;;;;;;;23.59;47.73;101949.84;5134480;27;20573;-64
2022/07/14 10:55:14;;;;;;;14.88;12.13;;;;;;;23.60;48.18;101946.19;5134394;27;20102;-65
2022/07/14 10:58:20;;;;;;;15.27;12.02;;;;;;;23.61;48.72;101949.72;5133893;27;20099;-65
2022/07/14 11:00:54;;;;;;;17.75;13.02;;;;;;;23.61;48.73;101949.72;5134180;27;20027;-64
2022/07/14 11:03:32;;;;;;;15.75;11.88;;;;;;;23.64;48.66;101946.75;5133804;27;20057;-65
2022/07/14 11:06:12;;;;;;;15.65;11.68;;;;;;;23.63;48.62;101945.09;5133346;27;20035;-65
2022/07/14 11:08:39;;;;;;;12.30;11.02;;;;;;;23.63;48.71;101951.25;5134239;27;20027;-65
2022/07/14 11:11:17;;;;;;;12.93;10.50;;;;;;;23.63;48.52;101943.28;5133160;27;20099;-64
2022/07/14 11:14:06;;;;;;;13.13;10.43;;;;;;;23.65;48.92;101954.59;5134362;27;20023;-64
2022/07/14 11:16:50;;;;;;;15.13;10.43;;;;;;;23.67;48.51;101950.03;5134372;27;20419;-64
2022/07/14 11:19:24;;;;;;;14.75;10.52;;;;;;;23.68;48.65;101949.03;5133996;27;20381;-66
2022/07/14 11:22:17;;;;;;;14.17;9.60;;;;;;;23.69;48.90;101952.53;5134075;27;20023;-67
2022/07/14 11:24:59;;;;;;;14.73;8.95;;;;;;;23.69;48.95;101963.19;5133348;27;20031;-66
2022/07/14 11:27:26;;;;;;;14.50;9.10;;;;;;;23.70;48.34;101941.78;5134102;27;20034;-65
2022/07/14 11:29:54;;;;;;;13.07;8.48;;;;;;;23.71;48.63;101942.59;5133670;27;20034;-65
2022/07/14 11:32:33;;;;;;;10.57;7.68;;;;;;;23.73;48.58;101946.81;5133281;27;20025;-65
2022/07/14 11:38:20;;;;;;;11.98;8.20;;;;;;;23.76;48.76;101947.53;5133597;27;20565;-65
2022/07/14 11:40:52;;;;;;;12.07;7.95;;;;;;;23.77;48.82;101938.56;5133987;27;20068;-64